John Murtha Johnstown Cambria County Airport
KJST : rendu visible

Aérodrome :











RETROUVEZ-NOUS SUR...

 
LOGIN :

S'inscrire | Disclaimer

   EN    FR    IT 

 









Légende :    VFR   VFR Marginal   IFR   IFR Intensif   IFR Très Intensif
Visi : 
Plafond : 
>= 8 km
>= 3000ft
5 à 8 km
1000 à 3000 ft
1500m à 5 km
500 à 1000 ft
800 à 1500m
200 à 500 ft
< 800m
< 200 ft
Symboles :   Orages  Brouillard  Fortes neiges  Fortes précipitations  Vent > 20 kt






- Altitude de l'aérodrome : 2284 ft
- Code IATA : JST


KJST - John Murtha Johnstown Cambria County

DERNIER METAR :
  • 181654Z AUTO 16011G19KT 1 3/4SM UP BR OVC016 M04/M07 A3002 RMK AO2 SLP201 P0006 T10441067

METARs EXPIRÉS :
  • 181639Z AUTO 16011G18KT 1 3/4SM UP OVC018 M04/M07 A3004 RMK AO2 PRESFR P0004 T10441072
  • 181609Z AUTO 16011KT 2 1/2SM UP BKN026 OVC034 M04/M07 A3008 RMK AO2 P0001 T10441072
  • 181554Z AUTO 16011G20KT 4SM UP BKN030 OVC038 M04/M07 A3009 RMK AO2 UPB37SNB02E37 SLP225 P0003 I1000 T10441072
  • 181535Z AUTO 15011G18KT 3SM -SN FEW025 OVC033 M05/M08 A3011 RMK AO2 SNB02 P0001 T10501078
  • 181509Z AUTO 16011KT 1 3/4SM -SN SCT027 BKN037 OVC060 M05/M08 A3013 RMK AO2 SNB02 P0000 T10501083
  • 181454Z AUTO 16013G19KT 10SM FEW036 OVC060 M06/M09 A3015 RMK AO2 SLP246 60000 T10561089 56039

TAF KJST
Valide du 18 à 16h jusqu'au 19 à 12h UTC


181610Z 1816/1912 16011G20KT 4SM -SNPL BKN030 OVC040
FM181700 16012G22KT 2SM -SNPL BR OVC025
FM181800 17012G22KT 3SM -SNPL BR OVC009 WS020/21050KT
FM190000 22016G24KT 1/2SM -RA FG OVC003 WS020/25055KT
FM190400 25019G27KT 4SM BR OVC007 WS020/26049KT



MET'MAP, la Météo Aéronautique d'un coup d'oeil ! - Copyright ORBIFLY Décembre 2007 - Disclaimer

ORBIFLY MET'MAP TEAM :

Programmation & Développement : Alexandra Zaïnal
Sur une idée originale de : Baudouin d'Aumeries
Assistance à la programmation : Marc-Olivier Méhu
Soutien technique & logistique : Manuel Goepfert

Contact : metmap@orbifly.com




SOURCES & CREDITS :

   NOAA       Earth
Advisory